Time;durP1;ratioP1;P1;durP2;ratioP2;P2;SDS_P1;SDS_P2;PMS_P1;PMS_P2;Temp;Humidity;BMP_temperature;BMP_pressure;BME280_temperature;BME280_humidity;BME280_pressure;Samples;Min_cycle;Max_cycle;Signal;HPM_P1;HPM_P2
2023/08/02 00:02:16;;;;;;;2.50;1.60;;;16.60;81.40;;;15.56;100.00;95328.34;4950833;28;20042;-71
2023/08/02 00:04:42;;;;;;;3.67;1.45;;;16.60;81.50;;;15.55;100.00;95326.72;4938417;28;20125;-71
2023/08/02 00:07:08;;;;;;;2.33;1.70;;;16.60;81.20;;;15.54;100.00;95319.81;4962002;28;20030;-71
2023/08/02 00:09:34;;;;;;;2.53;1.50;;;16.60;81.20;;;15.53;100.00;95332.28;4966191;28;20401;-71
2023/08/02 00:11:59;;;;;;;2.60;1.67;;;16.60;81.00;;;15.50;100.00;95324.00;4952856;28;20035;-71
2023/08/02 00:14:25;;;;;;;4.38;1.77;;;16.60;81.00;;;15.49;100.00;95335.66;4965534;28;20045;-71
2023/08/02 00:16:51;;;;;;;2.72;1.40;;;16.60;80.70;;;15.46;100.00;95338.78;4970635;28;20054;-72
2023/08/02 00:19:17;;;;;;;2.47;1.60;;;16.50;80.70;;;15.45;100.00;95335.31;4951173;28;20043;-70
2023/08/02 00:21:43;;;;;;;3.40;1.25;;;16.50;80.60;;;15.43;100.00;95333.94;4952616;28;20130;-72
2023/08/02 00:24:09;;;;;;;3.28;1.60;;;16.50;80.50;;;15.39;100.00;95332.78;4952415;28;20034;-71
2023/08/02 00:26:34;;;;;;;3.20;1.60;;;16.50;80.50;;;15.39;100.00;95324.84;4969889;28;20729;-71
2023/08/02 00:29:00;;;;;;;2.53;1.42;;;16.40;80.30;;;15.37;100.00;95330.38;4968791;28;20121;-71
2023/08/02 00:31:26;;;;;;;4.20;1.75;;;16.40;80.50;;;15.37;100.00;95332.22;4978074;28;20145;-71
2023/08/02 00:33:52;;;;;;;2.97;1.90;;;16.40;80.30;;;15.33;100.00;95339.84;4938355;28;20036;-72
2023/08/02 00:36:17;;;;;;;3.08;1.70;;;16.40;80.40;;;15.33;100.00;95334.56;4974830;28;20129;-71
2023/08/02 00:38:43;;;;;;;2.78;1.50;;;16.40;80.30;;;15.30;100.00;95346.44;4943966;28;20041;-72
2023/08/02 00:41:09;;;;;;;3.03;1.42;;;16.40;80.30;;;15.29;100.00;95338.72;4967131;28;20070;-72
2023/08/02 00:43:39;;;;;;;2.83;1.80;;;16.50;80.20;;;15.29;100.00;95333.44;4952862;28;20026;-71
2023/08/02 00:46:07;;;;;;;2.42;1.67;;;16.40;80.10;;;15.27;100.00;95338.97;4980367;28;20038;-70
2023/08/02 00:48:33;;;;;;;3.10;1.42;;;16.40;79.90;;;15.27;100.00;95340.81;4951103;28;20035;-71
2023/08/02 00:50:59;;;;;;;2.17;1.55;;;16.40;79.80;;;15.27;100.00;95336.31;4967846;28;20038;-72
2023/08/02 00:53:26;;;;;;;4.82;1.75;;;16.40;79.60;;;15.24;100.00;95336.78;4951520;28;20065;-71
2023/08/02 00:55:52;;;;;;;3.00;1.50;;;16.30;79.70;;;15.20;100.00;95337.50;4972564;28;20034;-71
2023/08/02 00:58:17;;;;;;;3.03;1.40;;;16.30;79.50;;;15.19;100.00;95336.69;4964654;28;20038;-71
2023/08/02 01:00:43;;;;;;;3.67;1.48;;;16.30;79.40;;;15.15;100.00;95324.94;4951273;28;20031;-71
2023/08/02 01:03:09;;;;;;;2.88;1.80;;;16.20;79.50;;;15.12;100.00;95330.72;4983918;28;20122;-72
2023/08/02 01:05:40;;;;;;;4.63;1.70;;;16.20;79.30;;;15.10;100.00;95330.16;4965933;28;20755;-71
2023/08/02 01:08:08;;;;;;;2.42;1.77;;;16.20;79.60;;;15.07;100.00;95320.03;4950860;28;20039;-70
2023/08/02 01:10:47;;;;;;;2.97;1.95;;;16.10;79.50;;;15.06;100.00;95320.25;4950482;28;20485;-71
2023/08/02 01:13:14;;;;;;;3.97;1.50;;;16.10;79.50;;;15.01;100.00;95313.84;4982677;28;20037;-72
2023/08/02 01:15:40;;;;;;;4.75;1.83;;;16.10;79.40;;;14.99;100.00;95309.81;4952150;28;20046;-71
2023/08/02 01:18:05;;;;;;;4.00;2.00;;;16.10;79.50;;;14.96;100.00;95307.66;4950021;28;20090;-71
2023/08/02 01:20:31;;;;;;;2.53;1.70;;;16.00;79.50;;;14.91;100.00;95304.88;4968044;28;20042;-71
2023/08/02 01:22:57;;;;;;;3.65;1.90;;;16.00;79.60;;;14.91;100.00;95304.88;4966422;28;20114;-71
2023/08/02 01:25:24;;;;;;;2.50;1.73;;;16.10;79.50;;;14.89;100.00;95306.97;4949065;28;20134;-71
2023/08/02 01:28:00;;;;;;;6.07;1.90;;;16.10;79.40;;;14.88;100.00;95303.50;4950977;28;20039;-71
2023/08/02 01:30:38;;;;;;;3.47;1.80;;;16.00;79.40;;;14.85;100.00;95293.38;4965328;28;20081;-71
2023/08/02 01:33:05;;;;;;;4.07;1.73;;;15.90;79.50;;;14.83;100.00;95290.19;4952599;28;20415;-71
2023/08/02 01:35:31;;;;;;;2.60;1.80;;;16.00;79.50;;;14.81;100.00;95286.97;4951417;28;20045;-71
2023/08/02 01:37:56;;;;;;;2.92;1.52;;;16.00;79.60;;;14.81;100.00;95283.50;4969646;28;20038;-71
2023/08/02 01:40:22;;;;;;;3.90;1.90;;;15.90;79.50;;;14.77;100.00;95277.88;4948862;28;20035;-70
2023/08/02 01:42:48;;;;;;;3.80;1.90;;;15.90;79.70;;;14.77;100.00;95271.78;4953262;28;20030;-70
2023/08/02 01:45:14;;;;;;;3.38;2.00;;;15.90;79.60;;;14.78;100.00;95273.41;4950750;28;20129;-70
2023/08/02 01:47:39;;;;;;;4.13;2.10;;;15.90;79.50;;;14.75;100.00;95263.28;4964194;28;20137;-72
2023/08/02 01:50:06;;;;;;;3.60;1.83;;;15.90;79.50;;;14.74;100.00;95256.38;4950859;28;20507;-70
2023/08/02 01:52:34;;;;;;;3.40;2.25;;;15.90;79.20;;;14.72;100.00;95256.63;4959621;28;20061;-71
2023/08/02 01:55:00;;;;;;;4.53;2.25;;;15.80;79.30;;;14.73;100.00;95249.47;4953357;28;20030;-71
2023/08/02 01:57:26;;;;;;;2.88;1.77;;;15.90;79.10;;;14.72;100.00;95247.88;4951370;28;20605;-71
2023/08/02 01:59:52;;;;;;;2.20;1.80;;;15.80;79.00;;;14.69;100.00;95247.28;4952518;28;20516;-71
2023/08/02 02:02:17;;;;;;;4.40;1.92;;;15.80;78.90;;;14.67;100.00;95246.72;4948165;28;20390;-70
2023/08/02 02:04:44;;;;;;;4.25;1.95;;;15.80;79.00;;;14.66;100.00;95245.09;4984487;28;20130;-71
2023/08/02 02:07:09;;;;;;;3.70;1.83;;;15.80;79.00;;;14.63;100.00;95240.28;4955798;28;20035;-71
2023/08/02 02:09:35;;;;;;;3.13;2.00;;;15.70;79.00;;;14.60;100.00;95246.06;4951486;28;20453;-72
2023/08/02 02:12:01;;;;;;;5.20;2.30;;;15.70;79.00;;;14.58;100.00;95242.84;4951612;28;20042;-71
2023/08/02 02:14:27;;;;;;;5.80;2.05;;;15.80;79.00;;;14.57;100.00;95241.22;4983097;28;20044;-71
2023/08/02 02:16:52;;;;;;;3.47;2.10;;;15.70;78.90;;;14.55;100.00;95238.00;4967626;28;20125;-72
2023/08/02 02:19:18;;;;;;;3.85;2.13;;;15.60;79.10;;;14.53;100.00;95232.16;4966064;28;20074;-70
2023/08/02 02:21:44;;;;;;;4.20;2.22;;;15.70;79.20;;;14.52;100.00;95221.81;4969209;28;20617;-71
2023/08/02 02:24:09;;;;;;;3.42;1.85;;;15.70;79.10;;;14.52;100.00;95224.44;4961369;28;20413;-70
2023/08/02 02:26:36;;;;;;;3.85;2.25;;;15.70;79.10;;;14.52;100.00;95221.81;4967316;28;20113;-71
2023/08/02 02:29:02;;;;;;;4.90;2.08;;;15.60;79.10;;;14.49;100.00;95212.50;4964373;28;20513;-71
2023/08/02 02:31:28;;;;;;;5.30;2.47;;;15.70;79.00;;;14.48;100.00;95205.56;4956128;28;20113;-71
2023/08/02 02:33:53;;;;;;;4.13;1.90;;;15.70;78.90;;;14.49;100.00;95204.56;4988234;28;20117;-72
2023/08/02 02:36:21;;;;;;;3.83;2.22;;;15.70;78.90;;;14.47;100.00;95190.72;4971192;28;20121;-72
2023/08/02 02:38:48;;;;;;;4.35;2.05;;;15.70;78.90;;;14.46;100.00;95194.41;4971951;28;20046;-70
2023/08/02 02:41:14;;;;;;;3.10;1.90;;;15.70;78.90;;;14.45;100.00;95184.88;4975586;28;20035;-70
2023/08/02 02:43:40;;;;;;;3.45;2.15;;;15.70;79.00;;;14.43;100.00;95186.97;4945820;28;20420;-71
2023/08/02 02:46:05;;;;;;;5.93;1.90;;;15.60;79.10;;;14.44;100.00;95183.28;4953371;28;20145;-70
2023/08/02 02:48:31;;;;;;;4.90;1.90;;;15.60;79.10;;;14.43;100.00;95186.13;4987483;28;20065;-69
2023/08/02 02:50:57;;;;;;;2.78;1.90;;;15.70;79.30;;;14.42;100.00;95187.97;4985494;28;20040;-76
2023/08/02 02:53:23;;;;;;;4.70;2.30;;;15.70;79.40;;;14.40;100.00;95187.41;4961905;28;20110;-71
2023/08/02 02:55:51;;;;;;;3.00;2.15;;;15.60;79.50;;;14.41;100.00;95191.66;4959152;28;20085;-72
2023/08/02 02:58:17;;;;;;;3.70;2.40;;;15.60;79.20;;;14.39;100.00;95199.03;4959616;28;20045;-71
2023/08/02 03:00:43;;;;;;;7.07;2.60;;;15.60;79.10;;;14.38;100.00;95192.13;4969040;28;20089;-72
2023/08/02 03:03:09;;;;;;;6.05;2.58;;;15.60;79.00;;;14.34;100.00;95189.16;4939716;28;20121;-71
2023/08/02 03:05:37;;;;;;;4.57;2.38;;;15.50;79.10;;;14.32;100.00;95187.78;4968739;28;20149;-74
2023/08/02 03:08:03;;;;;;;4.78;1.95;;;15.50;79.50;;;14.27;100.00;95169.16;4967173;28;20141;-73
2023/08/02 03:10:29;;;;;;;4.10;2.30;;;15.50;79.40;;;14.29;100.00;95169.72;4971079;28;20374;-72
2023/08/02 03:12:54;;;;;;;4.47;2.50;;;15.50;79.50;;;14.26;100.00;95176.28;4965813;28;20565;-71
2023/08/02 03:15:20;;;;;;;4.30;2.20;;;15.50;79.60;;;14.25;100.00;95168.56;4948678;28;20466;-71
2023/08/02 03:17:46;;;;;;;4.97;2.03;;;15.50;79.70;;;14.20;100.00;95164.00;4969218;28;20117;-72
2023/08/02 03:20:12;;;;;;;5.25;2.53;;;15.50;79.80;;;14.17;100.00;95161.00;4949240;28;20197;-71
2023/08/02 03:22:38;;;;;;;3.78;2.30;;;15.50;79.80;;;14.15;100.00;95163.09;4952899;28;20216;-72
2023/08/02 03:25:04;;;;;;;7.47;2.33;;;15.40;79.90;;;14.14;100.00;95172.06;4949602;28;20108;-73
2023/08/02 03:27:30;;;;;;;5.43;2.58;;;15.40;79.80;;;14.12;100.00;95160.91;4953298;28;20038;-71
2023/08/02 03:29:56;;;;;;;3.20;1.95;;;15.40;80.00;;;14.10;100.00;95161.16;4948697;28;20216;-71
2023/08/02 03:32:21;;;;;;;3.88;2.30;;;15.40;79.90;;;14.07;100.00;95165.06;4963472;28;20129;-71
2023/08/02 03:34:47;;;;;;;6.30;2.50;;;15.40;80.10;;;14.07;100.00;95161.63;4965372;28;20031;-71
2023/08/02 03:37:13;;;;;;;5.05;2.22;;;15.40;80.10;;;14.03;100.00;95161.28;4984972;28;20557;-71
2023/08/02 03:39:39;;;;;;;3.80;2.70;;;15.30;80.10;;;14.02;100.00;95159.66;4964218;28;20459;-70
2023/08/02 03:42:05;;;;;;;5.18;2.53;;;15.30;80.10;;;14.01;100.00;95158.03;4944930;28;20039;-71
2023/08/02 03:44:31;;;;;;;8.40;3.20;;;15.30;80.10;;;13.98;100.00;95166.44;4951666;28;20039;-71
2023/08/02 03:46:57;;;;;;;6.07;2.70;;;15.30;80.10;;;13.96;100.00;95154.50;4952182;28;20037;-70
2023/08/02 03:49:23;;;;;;;6.25;2.83;;;15.20;80.20;;;13.91;100.00;95149.91;4949752;28;20127;-71
2023/08/02 03:51:49;;;;;;;7.80;2.47;;;15.20;80.20;;;13.87;100.00;95147.97;4943941;28;20097;-72
2023/08/02 03:54:14;;;;;;;4.53;2.65;;;15.10;80.40;;;13.82;100.00;95138.09;4950360;28;20050;-66
2023/08/02 03:56:40;;;;;;;3.08;2.20;;;15.10;80.40;;;13.81;100.00;95141.78;4969651;28;20062;-68
2023/08/02 03:59:06;;;;;;;3.97;2.60;;;15.10;80.40;;;13.80;100.00;95140.16;4956029;28;20149;-70
2023/08/02 04:01:32;;;;;;;4.22;2.50;;;15.10;80.50;;;13.78;100.00;95148.31;4968389;28;20035;-69
2023/08/02 04:03:57;;;;;;;3.67;2.70;;;15.10;80.50;;;13.76;100.00;95139.81;4954990;28;20044;-70
2023/08/02 04:06:23;;;;;;;3.83;2.20;;;15.10;80.70;;;13.76;100.00;95136.38;4972256;28;20592;-69
2023/08/02 04:08:49;;;;;;;3.47;2.45;;;15.10;80.60;;;13.76;100.00;95125.78;4956430;28;20054;-69
2023/08/02 04:11:15;;;;;;;6.10;2.50;;;15.10;80.60;;;13.78;100.00;95123.72;4987870;28;20031;-70
2023/08/02 04:13:40;;;;;;;5.00;2.75;;;15.10;80.40;;;13.79;100.00;95125.31;4975539;28;20121;-69
2023/08/02 04:16:06;;;;;;;4.57;2.60;;;15.10;80.60;;;13.81;100.00;95123.28;4972640;28;20212;-70
2023/08/02 04:18:32;;;;;;;4.75;2.83;;;15.20;80.60;;;13.82;100.00;95122.25;4971522;28;20441;-69
2023/08/02 04:20:59;;;;;;;3.60;2.53;;;15.20;80.40;;;13.84;100.00;95114.88;4972429;28;20077;-70
2023/08/02 04:23:26;;;;;;;3.67;2.53;;;15.30;80.30;;;13.88;100.00;95123.94;4976402;28;20141;-69
2023/08/02 04:25:52;;;;;;;3.55;2.33;;;15.30;80.20;;;13.90;100.00;95113.13;4954214;28;20027;-70
2023/08/02 04:28:18;;;;;;;5.65;2.60;;;15.40;80.20;;;13.95;100.00;95116.69;4954325;28;20043;-68
2023/08/02 04:30:49;;;;;;;4.40;2.70;;;15.40;80.10;;;14.00;100.00;95119.41;4956106;28;20018;-70
2023/08/02 04:33:15;;;;;;;4.15;2.53;;;15.40;80.00;;;14.02;100.00;95114.69;4964526;28;20117;-70
2023/08/02 04:35:41;;;;;;;4.70;2.63;;;15.50;80.10;;;14.05;100.00;95111.63;4969845;28;20467;-69
2023/08/02 04:38:07;;;;;;;5.60;2.92;;;15.50;80.20;;;14.09;100.00;95120.69;4969879;28;20513;-69
2023/08/02 04:40:37;;;;;;;6.50;2.97;;;15.60;80.20;;;14.15;100.00;95128.72;4937478;28;20386;-69
2023/08/02 04:43:03;;;;;;;;;;;15.60;79.90;;;14.14;100.00;95105.94;4957287;28;20525;-70
2023/08/02 04:45:29;;;;;;;4.22;2.40;;;15.60;79.90;;;14.14;100.00;95098.00;4952720;28;19941;-68
2023/08/02 04:47:55;;;;;;;4.03;2.65;;;15.60;79.90;;;14.19;100.00;95095.47;4970946;28;20035;-70
2023/08/02 04:50:21;;;;;;;4.55;2.60;;;15.70;79.70;;;14.23;100.00;95096.59;4962973;28;20125;-70
2023/08/02 04:52:50;;;;;;;4.43;3.00;;;15.70;79.30;;;14.22;100.00;95090.50;4958719;28;20117;-70
2023/08/02 04:55:15;;;;;;;6.78;3.28;;;15.70;79.40;;;14.27;100.00;95087.16;4945337;28;20117;-70
2023/08/02 04:57:41;;;;;;;5.75;2.97;;;15.70;79.30;;;14.30;100.00;95068.19;4952049;28;20046;-70
2023/08/02 05:00:07;;;;;;;5.20;3.05;;;15.70;79.60;;;14.34;100.00;95062.16;4987631;28;20078;-69
2023/08/02 05:02:36;;;;;;;6.55;2.92;;;15.80;79.40;;;14.38;100.00;95067.78;4970689;28;20178;-70
2023/08/02 05:05:03;;;;;;;4.43;2.58;;;15.90;79.00;;;14.36;100.00;95069.88;4972555;28;20520;-69
2023/08/02 05:07:34;;;;;;;4.20;2.63;;;15.90;79.00;;;14.41;100.00;95062.00;4960085;28;20033;-69
2023/08/02 05:10:04;;;;;;;5.22;2.83;;;15.90;79.20;;;14.44;100.00;95069.50;4969642;28;20039;-69
2023/08/02 05:12:38;;;;;;;5.75;3.05;;;15.90;78.90;;;14.50;100.00;95073.88;4967826;28;20421;-70
2023/08/02 05:15:05;;;;;;;5.85;3.10;;;16.00;78.70;;;14.51;100.00;95072.81;4955626;28;20046;-70
2023/08/02 05:17:30;;;;;;;5.40;2.90;;;16.00;78.60;;;14.54;100.00;95072.34;4954073;28;20041;-69
2023/08/02 05:19:57;;;;;;;3.15;2.55;;;16.10;78.50;;;14.63;100.00;95057.66;4954806;28;20114;-70
2023/08/02 05:22:22;;;;;;;5.57;2.72;;;16.20;78.10;;;14.65;100.00;95058.22;4973284;28;20077;-70
2023/08/02 05:24:52;;;;;;;5.40;2.90;;;16.20;77.80;;;14.72;100.00;95050.16;4954353;28;20425;-70
2023/08/02 05:27:18;;;;;;;5.15;2.85;;;16.30;77.40;;;14.79;100.00;95052.63;4951102;28;20038;-69
2023/08/02 05:29:44;;;;;;;5.32;2.72;;;16.40;77.40;;;14.88;100.00;95064.41;4953235;28;20035;-69
2023/08/02 05:32:10;;;;;;;5.18;2.67;;;16.50;76.80;;;14.98;100.00;95056.66;4955040;28;20114;-69
2023/08/02 05:34:36;;;;;;;5.63;2.97;;;16.70;76.30;;;15.07;100.00;95065.78;4955211;28;20027;-70
2023/08/02 05:37:02;;;;;;;7.43;2.90;;;16.70;76.30;;;15.15;100.00;95046.81;4971723;28;20057;-69
2023/08/02 05:39:28;;;;;;;7.10;2.95;;;16.80;76.10;;;15.23;100.00;95038.47;4954753;28;20033;-70
2023/08/02 05:41:53;;;;;;;7.07;2.83;;;16.90;76.30;;;15.31;100.00;95042.53;4969253;28;20181;-71
2023/08/02 05:44:19;;;;;;;5.78;2.90;;;17.00;76.40;;;15.39;100.00;95041.31;4968653;28;20109;-70
2023/08/02 05:46:45;;;;;;;4.22;2.70;;;17.10;76.80;;;15.42;100.00;95033.69;4973528;28;20041;-69
2023/08/02 05:49:11;;;;;;;5.63;2.58;;;17.10;77.10;;;15.48;100.00;95029.25;4954487;28;20177;-70
2023/08/02 05:51:39;;;;;;;6.68;2.92;;;17.10;76.80;;;15.53;100.00;95022.16;4937870;28;20046;-69
2023/08/02 05:54:05;;;;;;;5.65;2.80;;;17.10;76.30;;;15.53;100.00;95022.16;4954696;28;20045;-69
2023/08/02 05:56:31;;;;;;;4.35;2.80;;;17.10;76.60;;;15.55;100.00;95013.97;4969981;28;20118;-70
2023/08/02 05:58:57;;;;;;;4.38;2.92;;;17.10;76.80;;;15.57;100.00;95017.97;4955042;28;20141;-69
2023/08/02 06:01:23;;;;;;;6.07;3.10;;;17.20;76.80;;;15.61;100.00;95019.16;4965686;28;20178;-69
2023/08/02 06:03:48;;;;;;;4.35;3.08;;;17.20;77.00;;;15.61;100.00;95026.25;4940017;28;20036;-69
2023/08/02 06:06:14;;;;;;;5.70;2.70;;;17.10;76.80;;;15.61;100.00;95028.91;4972375;28;20469;-70
2023/08/02 06:08:41;;;;;;;4.90;2.85;;;17.10;76.70;;;15.63;100.00;95021.53;4958497;28;20531;-70
2023/08/02 06:11:07;;;;;;;3.97;2.53;;;17.20;76.80;;;15.62;100.00;95030.56;4973527;28;20683;-70
2023/08/02 06:13:32;;;;;;;5.00;2.65;;;17.20;76.40;;;15.62;100.00;95019.94;4978094;28;20034;-71
2023/08/02 06:15:58;;;;;;;5.38;2.53;;;17.10;76.10;;;15.64;100.00;95006.44;4975049;28;20057;-71
2023/08/02 06:18:24;;;;;;;5.15;2.90;;;17.20;76.50;;;15.65;100.00;95008.84;4975032;28;20114;-71
2023/08/02 06:20:50;;;;;;;6.85;2.45;;;17.20;76.30;;;15.70;100.00;95016.06;4979170;28;20357;-71
2023/08/02 06:23:15;;;;;;;5.75;2.28;;;17.30;76.20;;;15.75;100.00;95021.41;4959344;28;20129;-70
2023/08/02 06:25:41;;;;;;;3.95;2.40;;;17.40;76.30;;;15.79;100.00;95015.34;4969559;28;20031;-70
2023/08/02 06:28:07;;;;;;;6.53;2.38;;;17.40;76.20;;;15.81;100.00;95029.16;4958271;28;20521;-70
2023/08/02 06:30:33;;;;;;;4.25;2.63;;;17.40;75.90;;;15.85;100.00;95024.19;4961719;28;20426;-71
2023/08/02 06:32:58;;;;;;;4.18;2.20;;;17.50;75.50;;;15.89;100.00;95025.28;4974738;28;20152;-70
2023/08/02 06:35:24;;;;;;;5.00;2.55;;;17.60;75.40;;;15.96;100.00;95025.09;4952574;28;20118;-70
2023/08/02 06:37:50;;;;;;;3.25;2.28;;;17.60;75.20;;;16.02;100.00;95029.41;4956618;28;20162;-71
2023/08/02 06:40:16;;;;;;;3.80;2.42;;;17.70;75.10;;;16.09;100.00;95036.13;4957131;28;20057;-70
2023/08/02 06:42:41;;;;;;;5.70;2.75;;;17.90;75.30;;;16.18;100.00;95044.44;4972157;28;20443;-70
2023/08/02 06:45:08;;;;;;;5.80;2.97;;;18.00;75.50;;;16.25;100.00;95053.00;4992075;28;20117;-71
2023/08/02 06:47:34;;;;;;;5.05;2.92;;;18.00;74.80;;;16.31;100.00;95053.88;4972351;28;20065;-71
2023/08/02 06:49:59;;;;;;;3.78;2.50;;;18.00;74.40;;;16.33;100.00;95063.19;4956590;28;20089;-69
2023/08/02 06:52:25;;;;;;;4.53;2.72;;;18.00;74.90;;;16.35;100.00;95054.97;4958516;28;20121;-70
2023/08/02 06:54:55;;;;;;;3.90;2.80;;;17.90;74.90;;;16.34;100.00;95059.47;4958122;28;20121;-69
2023/08/02 06:57:24;;;;;;;5.53;2.65;;;17.90;75.40;;;16.33;100.00;95057.88;4972182;28;20026;-70
2023/08/02 06:59:53;;;;;;;3.90;2.65;;;17.90;75.90;;;16.35;100.00;95065.59;4990187;28;20023;-70
2023/08/02 07:02:19;;;;;;;3.55;2.53;;;18.00;76.80;;;16.37;100.00;95063.47;4959293;28;20074;-71
2023/08/02 07:04:44;;;;;;;5.78;2.58;;;18.00;76.00;;;16.36;100.00;95052.06;4954768;28;20114;-69
2023/08/02 07:07:10;;;;;;;6.07;3.00;;;18.00;75.70;;;16.37;100.00;95066.13;4957853;28;20118;-70
2023/08/02 07:09:36;;;;;;;5.47;2.90;;;17.90;76.00;;;16.37;100.00;95053.66;4970812;28;20080;-71
2023/08/02 07:12:02;;;;;;;5.68;2.72;;;17.90;76.30;;;16.38;100.00;95060.56;4971443;28;20439;-69
2023/08/02 07:14:28;;;;;;;6.05;2.53;;;17.90;76.00;;;16.39;100.00;95061.38;4953866;28;20435;-70
2023/08/02 07:16:53;;;;;;;5.50;2.55;;;17.90;75.80;;;16.41;100.00;95062.72;4970183;28;20026;-70
2023/08/02 07:19:19;;;;;;;3.45;2.45;;;18.00;76.40;;;16.41;100.00;95060.06;4962737;28;20067;-70
2023/08/02 07:21:45;;;;;;;4.35;2.20;;;18.00;75.70;;;16.39;100.00;95054.22;4959101;28;20048;-69
2023/08/02 07:24:11;;;;;;;4.28;2.38;;;18.00;75.10;;;16.44;100.00;95061.41;4964949;28;20398;-70
2023/08/02 07:26:36;;;;;;;3.97;2.20;;;18.10;75.70;;;16.49;100.00;95062.25;4969579;28;20118;-71
2023/08/02 07:29:02;;;;;;;6.78;2.60;;;18.20;75.30;;;16.56;100.00;95062.06;4943216;28;20113;-70
2023/08/02 07:31:28;;;;;;;3.75;2.13;;;18.30;75.50;;;16.61;100.00;95058.66;4964012;28;20125;-69
2023/08/02 07:33:53;;;;;;;5.18;2.50;;;18.40;75.10;;;16.65;100.00;95059.75;4957447;28;20122;-70
2023/08/02 07:36:20;;;;;;;6.13;2.40;;;18.40;74.70;;;16.69;100.00;95050.25;4973404;28;20121;-70
2023/08/02 07:38:46;;;;;;;5.75;2.28;;;18.40;75.10;;;16.74;100.00;95051.09;4973240;28;20049;-68
2023/08/02 07:41:12;;;;;;;3.63;2.53;;;18.50;75.00;;;16.80;100.00;95051.97;4955553;28;20038;-69
2023/08/02 07:43:37;;;;;;;7.13;2.17;;;18.60;75.40;;;16.87;100.00;95062.38;4957102;28;20027;-70
2023/08/02 07:46:03;;;;;;;4.93;2.25;;;18.60;74.10;;;16.92;100.00;95067.72;4969813;28;20122;-68
2023/08/02 07:48:29;;;;;;;3.65;2.47;;;18.60;75.20;;;16.97;100.00;95075.72;4941652;28;20019;-69
2023/08/02 07:50:55;;;;;;;5.57;2.50;;;18.60;75.00;;;16.96;100.00;95066.94;4970069;28;20042;-69
2023/08/02 07:53:21;;;;;;;4.78;2.25;;;18.60;74.80;;;16.97;100.00;95068.53;4955969;28;20118;-69
2023/08/02 07:55:48;;;;;;;2.70;2.05;;;18.50;74.20;;;16.95;100.00;95064.53;4941302;28;20132;-69
2023/08/02 07:58:14;;;;;;;4.45;2.10;;;18.50;74.70;;;16.96;100.00;95060.84;4952999;28;20037;-69
2023/08/02 08:00:39;;;;;;;3.50;2.35;;;18.60;75.50;;;17.01;100.00;95058.25;4975494;28;20027;-69
2023/08/02 08:03:05;;;;;;;3.60;2.30;;;18.70;75.20;;;17.09;100.00;95055.09;4970374;28;20057;-69
2023/08/02 08:05:31;;;;;;;3.78;2.20;;;19.00;75.20;;;17.21;100.00;95052.28;4957444;28;20120;-69
2023/08/02 08:07:57;;;;;;;4.00;2.60;;;19.10;75.40;;;17.30;100.00;95050.72;4969521;28;20090;-69
2023/08/02 08:10:22;;;;;;;3.17;1.90;;;19.30;75.00;;;17.37;100.00;95045.97;4969703;28;20490;-70
2023/08/02 08:12:48;;;;;;;4.88;2.05;;;19.20;73.70;;;17.43;100.00;95050.28;4975814;28;20125;-69
2023/08/02 08:15:14;;;;;;;3.63;1.80;;;19.20;73.20;;;17.46;100.00;95044.44;4968946;28;20184;-70
2023/08/02 08:17:40;;;;;;;4.13;2.00;;;19.20;73.20;;;17.49;100.00;95043.94;4967089;28;20050;-69
2023/08/02 08:20:06;;;;;;;5.82;2.40;;;19.30;73.60;;;17.54;100.00;95045.81;4969688;28;20426;-68
2023/08/02 08:22:32;;;;;;;3.97;2.22;;;19.30;73.60;;;17.58;100.00;95038.91;4956476;28;20513;-69
2023/08/02 08:24:58;;;;;;;4.40;2.40;;;19.30;73.50;;;17.57;100.00;95035.47;4959645;28;20122;-70
2023/08/02 08:27:24;;;;;;;3.42;2.20;;;19.10;73.50;;;17.55;100.00;95037.56;4971746;28;20029;-68
2023/08/02 08:29:50;;;;;;;4.43;2.05;;;19.10;73.40;;;17.57;100.00;95045.28;4974018;28;20033;-69
2023/08/02 08:32:16;;;;;;;3.40;2.40;;;19.30;74.00;;;17.59;100.00;95033.34;4954599;28;20156;-69
2023/08/02 08:34:42;;;;;;;5.57;2.53;;;19.30;74.70;;;17.56;100.00;95033.84;4972714;28;20046;-69
2023/08/02 08:37:08;;;;;;;3.75;2.20;;;19.10;74.10;;;17.57;100.00;95035.47;4972145;28;20034;-68
2023/08/02 08:39:38;;;;;;;5.20;2.33;;;19.10;74.50;;;17.60;100.00;95024.31;4955064;28;20034;-69
2023/08/02 08:42:07;;;;;;;5.35;2.63;;;19.40;74.40;;;17.67;100.00;95024.09;4953789;28;20038;-69
2023/08/02 08:44:37;;;;;;;3.75;2.13;;;19.50;74.90;;;17.69;100.00;95022.78;4956563;28;20045;-70
2023/08/02 08:47:07;;;;;;;3.38;2.03;;;19.40;74.40;;;17.71;100.00;95022.53;4972377;28;20026;-69
2023/08/02 08:49:33;;;;;;;4.30;2.10;;;19.40;74.00;;;17.71;100.00;95020.66;4940272;28;20031;-69
2023/08/02 08:52:05;;;;;;;4.30;2.15;;;19.40;73.90;;;17.73;100.00;95023.06;4953309;28;20109;-67
2023/08/02 08:54:32;;;;;;;2.92;1.85;;;19.40;74.00;;;17.70;100.00;95012.97;4970138;28;20084;-69
2023/08/02 08:56:58;;;;;;;3.78;2.10;;;19.30;73.50;;;17.68;100.00;95015.88;4969123;28;20051;-70
2023/08/02 08:59:24;;;;;;;5.03;1.98;;;19.20;73.60;;;17.69;100.00;95027.31;4972019;28;20031;-69
2023/08/02 09:01:50;;;;;;;4.00;1.95;;;19.30;73.50;;;17.67;100.00;95024.91;4974751;28;20038;-70
2023/08/02 09:04:16;;;;;;;5.32;2.50;;;19.30;73.90;;;17.66;100.00;95014.50;4955030;28;20513;-69
2023/08/02 09:06:42;;;;;;;3.03;2.05;;;19.30;73.60;;;17.69;100.00;95014.81;4967736;28;20082;-69
2023/08/02 09:09:07;;;;;;;2.22;1.73;;;19.40;74.20;;;17.71;100.00;95014.56;4954020;28;20114;-69
2023/08/02 09:11:34;;;;;;;2.78;1.98;;;19.30;73.50;;;17.74;100.00;95008.72;4972044;28;20050;-69
2023/08/02 09:14:12;;;;;;;3.70;2.10;;;19.40;74.60;;;17.74;100.00;95012.16;4971479;28;20512;-68
2023/08/02 09:17:00;;;;;;;3.60;2.13;;;19.40;74.90;;;17.73;100.00;94996.47;4970973;28;20039;-68
2023/08/02 09:19:32;;;;;;;4.05;2.33;;;19.30;74.40;;;17.76;100.00;94995.94;4969252;28;20039;-70
2023/08/02 09:22:16;;;;;;;3.03;2.10;;;19.50;74.80;;;17.78;100.00;94995.69;4956913;28;20050;-69
2023/08/02 09:24:43;;;;;;;3.80;1.90;;;19.50;74.30;;;17.79;100.00;95000.75;4955557;28;20474;-70
2023/08/02 09:27:17;;;;;;;4.70;2.50;;;19.50;74.40;;;17.78;100.00;94993.81;4955867;28;20030;-69
2023/08/02 09:29:50;;;;;;;2.90;1.92;;;19.40;75.10;;;17.78;100.00;95001.00;4964121;28;20034;-70
2023/08/02 09:32:20;;;;;;;4.18;2.47;;;19.30;74.90;;;17.73;100.00;94999.94;4970202;28;20061;-70
2023/08/02 09:34:53;;;;;;;2.45;2.00;;;19.20;75.60;;;17.70;100.00;95002.31;4968730;28;20031;-70
2023/08/02 09:37:33;;;;;;;3.38;1.95;;;19.00;75.00;;;17.61;100.00;94990.53;4971149;28;20061;-70
2023/08/02 09:39:59;;;;;;;2.93;2.23;;;18.90;75.90;;;17.57;100.00;94984.94;4952945;28;20522;-67
2023/08/02 09:42:26;;;;;;;5.07;2.53;;;19.00;76.00;;;17.56;100.00;94986.00;4954979;28;20088;-69
2023/08/02 09:44:56;;;;;;;3.78;2.17;;;19.00;75.80;;;17.53;100.00;94981.19;4969099;28;20026;-69
2023/08/02 09:47:22;;;;;;;3.00;2.15;;;19.00;76.20;;;17.50;100.00;94971.09;4955800;28;20050;-69
2023/08/02 09:50:07;;;;;;;4.28;2.42;;;18.90;76.60;;;17.52;100.00;94968.97;4967102;28;20038;-70
2023/08/02 09:52:33;;;;;;;4.13;2.15;;;19.10;76.10;;;17.54;100.00;94956.22;4968700;28;20053;-70
2023/08/02 09:54:59;;;;;;;10.18;2.60;;;19.10;76.70;;;17.58;100.00;94957.28;4968352;28;20062;-68
2023/08/02 09:57:27;;;;;;;3.92;2.47;;;19.10;76.50;;;17.56;100.00;94956.75;4968989;28;20031;-70
2023/08/02 10:00:06;;;;;;;4.75;2.40;;;19.10;77.20;;;17.57;100.00;94950.38;4954772;28;20064;-69
2023/08/02 10:02:32;;;;;;;6.47;3.00;;;19.10;77.00;;;17.57;100.00;94949.56;4953214;28;20038;-70
2023/08/02 10:04:58;;;;;;;5.20;2.47;;;19.10;77.50;;;17.56;100.00;94943.44;4971765;28;20130;-69
2023/08/02 10:07:38;;;;;;;3.30;2.40;;;19.00;77.10;;;17.56;100.00;94946.13;4953692;28;20031;-70
2023/08/02 10:10:18;;;;;;;3.75;2.33;;;19.00;77.50;;;17.50;100.00;94933.88;4984594;28;20100;-69
2023/08/02 10:12:55;;;;;;;4.20;2.30;;;19.00;77.70;;;17.54;100.00;94929.63;4957595;28;20030;-70